createdAt,value
2018-12-24T00:00:38.028Z,0.80
2018-12-24T00:03:07.007Z,0.87
2018-12-24T00:05:36.096Z,0.63
2018-12-24T00:08:05.145Z,0.87
2018-12-24T00:10:34.067Z,0.77
2018-12-24T00:13:03.012Z,0.83
2018-12-24T00:15:32.028Z,0.80
2018-12-24T00:18:01.006Z,0.77
2018-12-24T00:20:30.006Z,0.90
2018-12-24T00:22:58.971Z,0.60
2018-12-24T00:25:27.967Z,1.47
2018-12-24T00:27:56.932Z,1.57
2018-12-24T00:30:25.907Z,1.23
2018-12-24T00:32:54.885Z,1.63
2018-12-24T00:35:23.848Z,0.60
2018-12-24T00:37:52.826Z,0.97
2018-12-24T00:40:21.880Z,1.03
2018-12-24T00:42:50.880Z,0.93
2018-12-24T00:45:19.837Z,0.80
2018-12-24T00:47:48.996Z,1.10
2018-12-24T00:50:17.964Z,0.73
2018-12-24T00:52:46.965Z,1.67
2018-12-24T00:55:15.945Z,1.37
2018-12-24T00:57:47.907Z,0.90
2018-12-24T01:00:16.965Z,1.80
2018-12-24T01:02:45.960Z,0.50
2018-12-24T01:05:14.937Z,1.20
2018-12-24T01:07:43.898Z,0.97
2018-12-24T01:10:12.978Z,1.07
2018-12-24T01:12:42.064Z,1.47
2018-12-24T01:15:10.989Z,0.43
2018-12-24T01:17:39.973Z,1.20
2018-12-24T01:20:08.925Z,1.50
2018-12-24T01:22:37.912Z,0.80
2018-12-24T01:25:06.844Z,1.13
2018-12-24T01:27:35.803Z,1.90
2018-12-24T01:30:04.879Z,0.70
2018-12-24T01:32:33.876Z,0.90
2018-12-24T01:35:02.853Z,1.23
2018-12-24T01:37:31.827Z,1.53
2018-12-24T01:40:00.810Z,1.27
2018-12-24T01:42:33.449Z,0.83
2018-12-24T01:45:00.390Z,0.90
2018-12-24T01:47:29.376Z,0.60
2018-12-24T01:49:58.357Z,1.73
2018-12-24T01:52:27.347Z,1.60
2018-12-24T01:54:56.334Z,0.87
2018-12-24T01:57:25.303Z,1.40
2018-12-24T01:59:54.272Z,1.10
2018-12-24T02:02:23.267Z,1.83
2018-12-24T02:04:52.246Z,0.80
2018-12-24T02:07:21.229Z,0.67
2018-12-24T02:09:50.212Z,0.67
2018-12-24T02:12:19.192Z,2.73
2018-12-24T02:14:48.171Z,0.67
2018-12-24T02:17:17.174Z,0.83
2018-12-24T02:19:46.127Z,0.57
2018-12-24T02:22:15.085Z,1.60
2018-12-24T02:24:44.090Z,1.90
2018-12-24T02:27:13.068Z,1.13
2018-12-24T02:29:42.066Z,0.50
2018-12-24T02:32:11.128Z,0.97
2018-12-24T02:34:40.094Z,4.13
2018-12-24T02:37:09.154Z,1.40
2018-12-24T02:39:38.131Z,1.10
2018-12-24T02:42:07.109Z,1.13
2018-12-24T02:44:36.070Z,0.63
2018-12-24T02:47:05.025Z,0.90
2018-12-24T02:49:34.003Z,1.07
2018-12-24T02:52:02.976Z,2.47
2018-12-24T02:54:31.960Z,1.13
2018-12-24T02:57:00.918Z,1.00
2018-12-24T02:59:29.910Z,0.77
2018-12-24T03:02:00.459Z,0.50
2018-12-24T03:04:29.434Z,1.17
2018-12-24T03:06:58.436Z,1.17
2018-12-24T03:09:27.411Z,0.70
2018-12-24T03:11:56.460Z,0.97
2018-12-24T03:14:25.454Z,0.70
2018-12-24T03:16:54.535Z,0.50
2018-12-24T03:19:23.583Z,1.13
2018-12-24T03:21:52.560Z,1.40
2018-12-24T03:24:21.806Z,0.33
2018-12-24T03:26:50.915Z,1.03
2018-12-24T03:29:19.926Z,1.07
2018-12-24T03:31:48.865Z,1.10
2018-12-24T03:34:17.916Z,1.97
2018-12-24T03:36:46.851Z,1.60
2018-12-24T03:39:15.792Z,0.87
2018-12-24T03:41:44.770Z,0.50
2018-12-24T03:44:13.750Z,0.60
2018-12-24T03:46:42.638Z,0.70
2018-12-24T03:49:11.637Z,0.73
2018-12-24T03:51:40.561Z,0.27
2018-12-24T03:54:09.539Z,1.10
2018-12-24T03:56:38.550Z,1.10
2018-12-24T03:59:07.549Z,0.63
2018-12-24T04:01:36.533Z,0.50
2018-12-24T04:04:05.514Z,0.80
2018-12-24T04:06:34.543Z,1.07
2018-12-24T04:09:04.457Z,0.43
2018-12-24T04:11:33.470Z,0.57
2018-12-24T04:14:02.420Z,0.60
2018-12-24T04:16:31.407Z,1.07
2018-12-24T04:19:00.379Z,1.47
2018-12-24T04:21:29.352Z,0.50
2018-12-24T04:23:58.345Z,0.80
2018-12-24T04:26:27.323Z,0.40
2018-12-24T04:28:56.313Z,1.63
2018-12-24T04:31:25.274Z,0.80
2018-12-24T04:33:54.442Z,0.93
2018-12-24T04:36:23.409Z,0.97
2018-12-24T04:38:52.377Z,1.07
2018-12-24T04:41:21.343Z,0.60
2018-12-24T04:43:50.404Z,0.50
2018-12-24T04:46:19.392Z,0.30
2018-12-24T04:48:48.415Z,1.13
2018-12-24T04:51:17.395Z,0.83
2018-12-24T04:53:46.366Z,1.33
2018-12-24T04:56:15.324Z,1.40
2018-12-24T04:58:44.324Z,1.17
2018-12-24T05:01:13.331Z,0.53
2018-12-24T05:03:42.290Z,0.43
2018-12-24T05:06:11.254Z,1.73
2018-12-24T05:08:40.332Z,1.93
2018-12-24T05:11:09.312Z,0.30
2018-12-24T05:13:40.995Z,0.77
2018-12-24T05:16:08.935Z,0.40
2018-12-24T05:18:37.906Z,1.50
2018-12-24T05:21:06.885Z,1.37
2018-12-24T05:23:35.884Z,0.70
2018-12-24T05:26:04.849Z,0.73
2018-12-24T05:28:33.923Z,1.60
2018-12-24T05:31:02.889Z,1.57
2018-12-24T05:33:31.869Z,0.90
2018-12-24T05:36:00.802Z,0.50
2018-12-24T05:38:29.755Z,1.17
2018-12-24T05:40:58.670Z,1.50
2018-12-24T05:43:27.671Z,1.93
2018-12-24T05:45:56.675Z,1.17
2018-12-24T05:48:25.652Z,1.13
2018-12-24T05:50:54.640Z,0.37
2018-12-24T05:53:23.617Z,1.47
2018-12-24T05:55:52.569Z,0.50
2018-12-24T05:58:21.544Z,0.73
2018-12-24T06:00:50.539Z,0.70
2018-12-24T06:03:19.526Z,1.03
2018-12-24T06:05:48.478Z,2.17
2018-12-24T06:08:17.423Z,0.30
2018-12-24T06:10:46.415Z,0.90
2018-12-24T06:13:15.412Z,1.03
2018-12-24T06:15:44.393Z,4.12
2018-12-24T06:18:13.345Z,4.60
2018-12-24T06:20:42.360Z,8.13
2018-12-24T06:23:11.341Z,11.23
2018-12-24T06:25:40.336Z,10.87
2018-12-24T06:28:09.340Z,9.07
2018-12-24T06:30:38.394Z,6.90
2018-12-24T06:33:07.358Z,9.50
2018-12-24T06:35:36.284Z,5.20
2018-12-24T06:38:05.245Z,7.37
2018-12-24T06:40:34.225Z,7.37
2018-12-24T06:43:03.216Z,6.23
2018-12-24T06:45:36.214Z,8.20
2018-12-24T06:48:05.192Z,6.17
2018-12-24T06:50:34.188Z,7.57
2018-12-24T06:53:03.155Z,8.33
2018-12-24T06:55:32.341Z,4.37
2018-12-24T06:58:01.328Z,5.63
2018-12-24T07:00:30.395Z,5.13
2018-12-24T07:02:59.343Z,5.60
2018-12-24T07:05:28.315Z,4.70
2018-12-24T07:07:57.361Z,6.83
2018-12-24T07:10:26.375Z,6.27
2018-12-24T07:12:55.420Z,4.30
2018-12-24T07:15:24.381Z,8.80
2018-12-24T07:17:53.327Z,4.00
2018-12-24T07:20:22.261Z,3.40
2018-12-24T07:22:51.331Z,10.53
2018-12-24T07:25:20.364Z,3.43
2018-12-24T07:27:49.359Z,5.50
2018-12-24T07:30:18.287Z,4.73
2018-12-24T07:32:47.308Z,2.77
2018-12-24T07:35:16.437Z,3.57
2018-12-24T07:37:45.357Z,3.37
2018-12-24T07:40:14.406Z,4.53
2018-12-24T07:42:43.369Z,2.57
2018-12-24T07:45:13.165Z,2.03
2018-12-24T07:47:42.143Z,1.87
2018-12-24T07:50:11.104Z,6.97
2018-12-24T07:52:40.103Z,4.67
2018-12-24T07:55:09.056Z,7.57
2018-12-24T07:57:37.999Z,5.97
2018-12-24T08:00:08.067Z,5.80
2018-12-24T08:02:37.051Z,9.63
2018-12-24T08:05:05.980Z,8.67
2018-12-24T08:07:34.947Z,5.90
2018-12-24T08:10:04.073Z,6.73
2018-12-24T08:12:33.033Z,5.73
2018-12-24T08:15:01.985Z,5.63
2018-12-24T08:17:30.922Z,7.30
2018-12-24T08:19:59.887Z,7.47
2018-12-24T08:22:28.859Z,6.00
2018-12-24T08:24:57.836Z,4.53
2018-12-24T08:27:26.818Z,8.00
2018-12-24T08:29:55.727Z,5.23
2018-12-24T08:32:24.703Z,6.53
2018-12-24T08:34:53.689Z,3.70
2018-12-24T08:37:22.607Z,3.73
2018-12-24T08:39:51.593Z,6.00
2018-12-24T08:42:20.664Z,6.10
2018-12-24T08:44:49.655Z,4.00
2018-12-24T08:47:18.629Z,5.73
2018-12-24T08:49:47.607Z,3.33
2018-12-24T08:52:16.586Z,12.00
2018-12-24T08:54:45.589Z,4.10
2018-12-24T08:57:14.615Z,4.10
2018-12-24T08:59:43.555Z,2.67
2018-12-24T09:02:12.485Z,7.80
2018-12-24T09:04:41.462Z,5.27
2018-12-24T09:07:10.425Z,6.20
2018-12-24T09:09:39.428Z,6.97
2018-12-24T09:12:08.419Z,5.13
2018-12-24T09:14:37.396Z,4.30
2018-12-24T09:17:06.393Z,6.07
2018-12-24T09:19:35.363Z,5.10
2018-12-24T09:22:04.326Z,4.77
2018-12-24T09:24:33.301Z,2.43
2018-12-24T09:27:02.239Z,3.63
2018-12-24T09:29:31.199Z,4.53
2018-12-24T09:32:00.132Z,2.93
2018-12-24T09:34:29.069Z,5.97
2018-12-24T09:36:58.054Z,3.57
2018-12-24T09:39:27.006Z,4.53
2018-12-24T09:41:56.005Z,2.40
2018-12-24T09:44:25.003Z,6.43
2018-12-24T09:46:53.961Z,4.13
2018-12-24T09:49:22.933Z,1.33
2018-12-24T09:51:51.855Z,2.20
2018-12-24T09:54:20.856Z,2.10
2018-12-24T09:56:49.789Z,2.17
2018-12-24T09:59:18.740Z,1.97
2018-12-24T10:01:47.706Z,2.83
2018-12-24T10:04:23.863Z,1.60
2018-12-24T10:06:52.858Z,5.17
2018-12-24T10:09:23.299Z,2.13
2018-12-24T10:11:52.283Z,2.53
2018-12-24T10:14:21.321Z,3.37
2018-12-24T10:16:50.279Z,1.97
2018-12-24T10:19:19.191Z,2.40
2018-12-24T10:21:48.129Z,1.63
2018-12-24T10:24:17.116Z,2.80
2018-12-24T10:26:46.097Z,3.33
2018-12-24T10:29:15.075Z,1.47
2018-12-24T10:31:44.175Z,2.73
2018-12-24T10:34:13.165Z,2.20
2018-12-24T10:36:42.091Z,3.17
2018-12-24T10:39:11.047Z,1.07
2018-12-24T10:41:40.017Z,1.80
2018-12-24T10:44:09.003Z,2.60
2018-12-24T10:46:38.027Z,2.97
2018-12-24T10:49:07.025Z,2.20
2018-12-24T10:51:35.999Z,1.93
2018-12-24T10:54:05.008Z,2.23
2018-12-24T10:56:33.973Z,3.27
2018-12-24T10:59:02.936Z,2.20
2018-12-24T11:01:31.946Z,1.20
2018-12-24T11:04:00.916Z,2.57
2018-12-24T11:06:29.899Z,1.60
2018-12-24T11:08:58.857Z,1.77
2018-12-24T11:11:29.246Z,1.80
2018-12-24T11:13:58.224Z,3.53
2018-12-24T11:16:27.264Z,2.13
2018-12-24T11:18:56.206Z,1.67
2018-12-24T11:21:25.181Z,1.87
2018-12-24T11:23:54.144Z,2.17
2018-12-24T11:26:23.155Z,1.70
2018-12-24T11:28:52.075Z,2.60
2018-12-24T11:31:20.996Z,2.03
2018-12-24T11:33:49.969Z,1.17
2018-12-24T11:36:19.053Z,1.03
2018-12-24T11:38:48.030Z,2.03
2018-12-24T11:41:17.000Z,1.33
2018-12-24T11:43:45.962Z,2.30
2018-12-24T11:46:14.946Z,2.03
2018-12-24T11:48:44.051Z,1.93
2018-12-24T11:51:13.058Z,2.27
2018-12-24T11:53:42.031Z,15.93
2018-12-24T11:56:11.088Z,12.70
2018-12-24T11:58:40.061Z,9.00
2018-12-24T12:01:09.043Z,9.90
2018-12-24T12:03:38.015Z,5.13
2018-12-24T12:06:07.012Z,5.10
2018-12-24T12:08:35.965Z,7.83
2018-12-24T12:11:04.955Z,5.77
2018-12-24T12:13:33.892Z,2.87
2018-12-24T12:16:02.873Z,6.63
2018-12-24T12:18:31.845Z,4.27
2018-12-24T12:21:00.854Z,6.87
2018-12-24T12:23:29.794Z,2.17
2018-12-24T12:25:58.877Z,2.23
2018-12-24T12:28:27.849Z,3.57
2018-12-24T12:30:56.851Z,1.73
2018-12-24T12:33:25.841Z,6.37
2018-12-24T12:35:54.821Z,1.67
2018-12-24T12:38:29.719Z,1.97
2018-12-24T12:40:54.487Z,4.20
2018-12-24T12:43:23.476Z,3.87
2018-12-24T12:45:52.549Z,1.43
2018-12-24T12:48:21.516Z,4.70
2018-12-24T12:50:50.499Z,5.80
2018-12-24T12:53:19.488Z,5.37
2018-12-24T12:55:48.469Z,3.10
2018-12-24T12:58:17.529Z,1.10
2018-12-24T13:00:46.524Z,3.73
2018-12-24T13:03:15.588Z,0.83
2018-12-24T13:05:44.664Z,5.07
2018-12-24T13:08:13.672Z,1.67
2018-12-24T13:10:42.625Z,6.47
2018-12-24T13:13:11.615Z,3.33
2018-12-24T13:15:40.589Z,6.17
2018-12-24T13:18:09.559Z,6.60
2018-12-24T13:20:38.536Z,4.53
2018-12-24T13:23:07.510Z,3.20
2018-12-24T13:25:36.495Z,2.70
2018-12-24T13:28:05.545Z,2.73
2018-12-24T13:30:34.573Z,6.17
2018-12-24T13:33:03.565Z,5.73
2018-12-24T13:35:32.554Z,4.93
2018-12-24T13:38:01.523Z,8.03
2018-12-24T13:40:30.500Z,2.97
2018-12-24T13:42:59.512Z,4.87
2018-12-24T13:45:28.481Z,5.87
2018-12-24T13:47:57.439Z,5.70
2018-12-24T13:50:26.375Z,6.63
2018-12-24T13:52:55.348Z,2.47
2018-12-24T13:55:24.327Z,2.80
2018-12-24T13:57:53.321Z,2.90
2018-12-24T14:00:22.299Z,2.03
2018-12-24T14:02:51.278Z,1.33
2018-12-24T14:05:20.199Z,2.97
2018-12-24T14:07:49.120Z,2.53
2018-12-24T14:10:18.107Z,1.00
2018-12-24T14:12:47.069Z,2.43
2018-12-24T14:15:16.048Z,1.03
2018-12-24T14:17:45.020Z,1.47
2018-12-24T14:20:14.011Z,1.77
2018-12-24T14:22:43.031Z,1.83
2018-12-24T14:25:11.961Z,5.30
2018-12-24T14:27:40.882Z,1.70
2018-12-24T14:30:11.520Z,4.00
2018-12-24T14:32:41.885Z,1.83
2018-12-24T14:35:10.841Z,1.50
2018-12-24T14:37:39.821Z,0.97
2018-12-24T14:40:08.816Z,2.33
2018-12-24T14:42:37.801Z,1.53
2018-12-24T14:45:07.636Z,5.27
2018-12-24T14:47:36.605Z,3.77
2018-12-24T14:50:06.028Z,2.37
2018-12-24T14:52:35.029Z,3.17
2018-12-24T14:55:04.008Z,1.63
2018-12-24T14:57:33.008Z,2.63
2018-12-24T15:00:01.978Z,1.23
2018-12-24T15:02:30.939Z,3.80
2018-12-24T15:04:59.874Z,1.17
2018-12-24T15:07:28.860Z,1.70
2018-12-24T15:09:57.917Z,1.30
2018-12-24T15:12:26.922Z,1.37
2018-12-24T15:14:56.019Z,1.53
2018-12-24T15:17:25.208Z,1.50
2018-12-24T15:19:54.198Z,0.80
2018-12-24T15:22:23.174Z,1.97
2018-12-24T15:24:52.115Z,1.70
2018-12-24T15:27:21.007Z,1.37
2018-12-24T15:29:49.929Z,1.37
2018-12-24T15:32:18.926Z,2.60
2018-12-24T15:34:47.895Z,1.57
2018-12-24T15:37:16.853Z,0.97
2018-12-24T15:39:45.825Z,2.90
2018-12-24T15:42:14.824Z,2.07
2018-12-24T15:44:43.815Z,1.17
2018-12-24T15:47:12.895Z,1.13
2018-12-24T15:49:41.967Z,1.63
2018-12-24T15:52:10.964Z,1.27
2018-12-24T15:54:40.031Z,3.83
2018-12-24T15:57:08.976Z,2.47
2018-12-24T15:59:37.917Z,1.30
2018-12-24T16:02:06.899Z,0.90
2018-12-24T16:04:35.861Z,1.40
2018-12-24T16:07:04.932Z,0.77
2018-12-24T16:09:33.983Z,1.47
2018-12-24T16:12:02.990Z,1.67
2018-12-24T16:14:31.968Z,1.27
2018-12-24T16:17:00.941Z,1.93
2018-12-24T16:19:29.937Z,0.93
2018-12-24T16:21:58.977Z,1.47
2018-12-24T16:24:28.048Z,2.77
2018-12-24T16:26:57.028Z,2.10
2018-12-24T16:29:26.044Z,1.67
2018-12-24T16:31:55.020Z,1.10
2018-12-24T16:34:24.058Z,1.83
2018-12-24T16:36:53.010Z,0.80
2018-12-24T16:39:22.199Z,1.07
2018-12-24T16:41:51.192Z,1.07
2018-12-24T16:44:20.150Z,1.13
2018-12-24T16:46:49.143Z,1.00
2018-12-24T16:49:18.132Z,1.40
2018-12-24T16:51:47.101Z,1.10
2018-12-24T16:54:16.076Z,1.67
2018-12-24T16:56:44.993Z,2.63
2018-12-24T16:59:13.954Z,1.30
2018-12-24T17:01:42.941Z,1.00
2018-12-24T17:04:12.757Z,1.73
2018-12-24T17:06:41.719Z,1.43
2018-12-24T17:09:10.692Z,1.20
2018-12-24T17:11:39.691Z,0.97
2018-12-24T17:14:08.661Z,1.23
2018-12-24T17:16:37.719Z,1.33
2018-12-24T17:19:06.708Z,1.77
2018-12-24T17:21:35.810Z,1.30
2018-12-24T17:24:04.782Z,1.17
2018-12-24T17:26:33.763Z,2.50
2018-12-24T17:29:02.743Z,1.07
2018-12-24T17:31:31.739Z,1.97
2018-12-24T17:34:00.702Z,1.27
2018-12-24T17:36:29.682Z,1.20
2018-12-24T17:38:58.671Z,3.10
2018-12-24T17:41:27.644Z,0.87
2018-12-24T17:43:56.621Z,0.93
2018-12-24T17:46:25.598Z,1.30
2018-12-24T17:48:54.672Z,1.70
2018-12-24T17:51:24.951Z,1.53
2018-12-24T17:53:54.002Z,1.17
2018-12-24T17:56:22.935Z,1.73
2018-12-24T17:58:51.885Z,1.87
2018-12-24T18:01:20.867Z,2.00
2018-12-24T18:03:49.867Z,1.10
2018-12-24T18:06:18.805Z,1.53
2018-12-24T18:08:47.748Z,1.40
2018-12-24T18:11:16.648Z,0.90
2018-12-24T18:13:45.527Z,1.60
2018-12-24T18:16:14.468Z,3.07
2018-12-24T18:18:43.444Z,1.47
2018-12-24T18:21:12.489Z,1.13
2018-12-24T18:23:41.471Z,2.80
2018-12-24T18:26:10.409Z,1.47
2018-12-24T18:28:39.338Z,0.93
2018-12-24T18:31:08.322Z,1.63
2018-12-24T18:33:37.740Z,2.60
2018-12-24T18:36:06.709Z,1.93
2018-12-24T18:38:35.680Z,1.23
2018-12-24T18:41:04.684Z,1.13
2018-12-24T18:43:33.709Z,1.47
2018-12-24T18:46:02.680Z,2.13
2018-12-24T18:48:31.743Z,1.63
2018-12-24T18:51:00.773Z,1.63
2018-12-24T18:53:29.754Z,1.60
2018-12-24T18:55:58.748Z,1.87
2018-12-24T18:58:27.739Z,1.40
2018-12-24T19:00:56.695Z,1.30
2018-12-24T19:03:25.624Z,1.67
2018-12-24T19:05:54.564Z,1.30
2018-12-24T19:08:23.536Z,1.20
2018-12-24T19:10:52.516Z,2.00
2018-12-24T19:13:21.488Z,1.53
2018-12-24T19:15:50.474Z,1.20
2018-12-24T19:18:19.445Z,1.40
2018-12-24T19:20:48.429Z,1.20
2018-12-24T19:23:17.404Z,3.93
2018-12-24T19:25:46.449Z,1.20
2018-12-24T19:28:15.433Z,3.53
2018-12-24T19:30:44.435Z,2.53
2018-12-24T19:33:13.504Z,1.53
2018-12-24T19:35:42.546Z,1.87
2018-12-24T19:38:11.597Z,2.33
2018-12-24T19:40:40.629Z,1.63
2018-12-24T19:43:09.699Z,1.83
2018-12-24T19:45:38.669Z,2.27
2018-12-24T19:48:07.658Z,1.80
2018-12-24T19:50:36.623Z,2.00
2018-12-24T19:53:05.661Z,1.37
2018-12-24T19:55:34.640Z,2.00
2018-12-24T19:58:03.615Z,1.30
2018-12-24T20:00:32.584Z,1.20
2018-12-24T20:03:01.572Z,1.77
2018-12-24T20:05:30.536Z,2.33
2018-12-24T20:07:59.579Z,1.60
2018-12-24T20:10:28.577Z,2.23
2018-12-24T20:12:57.540Z,1.70
2018-12-24T20:15:26.606Z,2.20
2018-12-24T20:17:58.288Z,1.60
2018-12-24T20:20:26.223Z,2.17
2018-12-24T20:22:55.278Z,1.67
2018-12-24T20:25:24.247Z,1.83
2018-12-24T20:27:53.244Z,2.40
2018-12-24T20:30:22.332Z,2.20
2018-12-24T20:32:51.305Z,2.10
2018-12-24T20:35:20.291Z,1.50
2018-12-24T20:37:49.264Z,2.87
2018-12-24T20:40:18.256Z,2.50
2018-12-24T20:42:47.213Z,1.97
2018-12-24T20:45:16.208Z,1.70
2018-12-24T20:47:45.277Z,2.27
2018-12-24T20:50:14.272Z,1.97
2018-12-24T20:52:43.279Z,4.23
2018-12-24T20:55:12.240Z,2.30
2018-12-24T20:57:41.276Z,1.60
2018-12-24T21:00:10.913Z,1.90
2018-12-24T21:02:39.864Z,1.70
2018-12-24T21:05:08.815Z,2.57
2018-12-24T21:07:37.792Z,2.97
2018-12-24T21:10:06.799Z,1.60
2018-12-24T21:12:35.779Z,1.60
2018-12-24T21:15:05.033Z,3.43
2018-12-24T21:17:34.013Z,1.70
2018-12-24T21:20:03.010Z,2.13
2018-12-24T21:22:32.073Z,2.70
2018-12-24T21:25:01.024Z,2.30
2018-12-24T21:27:30.019Z,1.83
2018-12-24T21:29:58.996Z,2.13
2018-12-24T21:32:27.964Z,2.47
2018-12-24T21:34:56.960Z,2.10
2018-12-24T21:37:25.977Z,2.97
2018-12-24T21:39:55.013Z,1.87
2018-12-24T21:42:25.722Z,1.70
2018-12-24T21:44:54.726Z,1.60
2018-12-24T21:47:23.732Z,2.20
2018-12-24T21:49:52.767Z,2.40
2018-12-24T21:52:21.745Z,2.47
2018-12-24T21:54:50.748Z,1.47
2018-12-24T21:57:19.760Z,1.90
2018-12-24T21:59:48.729Z,2.03
2018-12-24T22:02:17.673Z,2.03
2018-12-24T22:04:46.593Z,1.80
2018-12-24T22:07:15.658Z,1.90
2018-12-24T22:09:44.743Z,1.90
2018-12-24T22:12:13.755Z,2.00
2018-12-24T22:14:42.716Z,1.43
2018-12-24T22:17:11.751Z,1.70
2018-12-24T22:19:40.795Z,2.07
2018-12-24T22:22:09.770Z,1.57
2018-12-24T22:24:38.752Z,2.53
2018-12-24T22:27:07.785Z,1.83
2018-12-24T22:29:36.792Z,2.17
2018-12-24T22:32:05.759Z,1.90
2018-12-24T22:34:34.711Z,1.93
2018-12-24T22:37:03.659Z,2.43
2018-12-24T22:39:32.702Z,1.73
2018-12-24T22:42:01.664Z,2.20
2018-12-24T22:44:30.648Z,2.10
2018-12-24T22:46:59.692Z,2.47
2018-12-24T22:49:28.635Z,2.40
2018-12-24T22:51:57.726Z,1.60
2018-12-24T22:54:26.685Z,1.87
2018-12-24T22:56:55.629Z,1.50
2018-12-24T22:59:24.610Z,1.80
2018-12-24T23:01:53.577Z,1.80
2018-12-24T23:04:22.542Z,2.00
2018-12-24T23:06:51.497Z,1.47
2018-12-24T23:09:20.422Z,3.17
2018-12-24T23:11:49.389Z,2.60
2018-12-24T23:14:18.367Z,1.90
2018-12-24T23:16:47.303Z,1.90
2018-12-24T23:19:16.275Z,1.87
2018-12-24T23:21:45.245Z,1.40
2018-12-24T23:24:14.201Z,1.67
2018-12-24T23:26:43.259Z,2.47
2018-12-24T23:29:12.251Z,1.80
2018-12-24T23:31:41.178Z,2.30
2018-12-24T23:34:10.125Z,1.10
2018-12-24T23:36:39.096Z,1.40
2018-12-24T23:39:08.073Z,1.23
2018-12-24T23:41:37.059Z,1.70
2018-12-24T23:44:05.940Z,2.00
2018-12-24T23:46:34.917Z,1.87
2018-12-24T23:49:03.910Z,1.20
2018-12-24T23:51:32.869Z,1.40
2018-12-24T23:54:01.838Z,1.30
2018-12-24T23:56:30.837Z,1.17
2018-12-24T23:58:59.797Z,1.77
